createdAt,value
2023-05-10T00:02:14.118Z,3.03
2023-05-10T00:04:40.703Z,3.03
2023-05-10T00:07:07.479Z,2.90
2023-05-10T00:09:36.478Z,3.30
2023-05-10T00:12:06.157Z,3.50
2023-05-10T00:14:32.618Z,3.40
2023-05-10T00:16:59.609Z,3.20
2023-05-10T00:19:26.880Z,3.33
2023-05-10T00:21:53.295Z,3.20
2023-05-10T00:24:19.699Z,3.28
2023-05-10T00:26:46.289Z,3.38
2023-05-10T00:29:13.150Z,3.00
2023-05-10T00:31:41.514Z,3.70
2023-05-10T00:34:08.328Z,3.83
2023-05-10T00:36:35.068Z,3.60
2023-05-10T00:39:04.161Z,3.70
2023-05-10T00:41:34.291Z,3.28
2023-05-10T00:44:01.423Z,3.10
2023-05-10T00:46:29.553Z,3.50
2023-05-10T00:48:56.449Z,3.22
2023-05-10T00:51:23.116Z,3.60
2023-05-10T00:53:54.574Z,3.20
2023-05-10T00:56:23.629Z,3.10
2023-05-10T00:58:50.265Z,3.20
2023-05-10T01:01:16.649Z,3.75
2023-05-10T01:03:43.715Z,2.97
2023-05-10T01:06:10.619Z,3.47
2023-05-10T01:08:39.862Z,3.65
2023-05-10T01:11:06.440Z,3.25
2023-05-10T01:13:38.332Z,4.38
2023-05-10T01:16:06.461Z,3.83
2023-05-10T01:18:42.065Z,3.65
2023-05-10T01:21:40.796Z,3.83
2023-05-10T01:24:10.113Z,3.60
2023-05-10T01:26:57.124Z,3.70
2023-05-10T01:29:45.736Z,3.30
2023-05-10T01:32:19.138Z,4.20
2023-05-10T01:34:51.112Z,3.55
2023-05-10T01:37:22.651Z,4.05
2023-05-10T01:40:04.274Z,3.72
2023-05-10T01:42:42.294Z,4.03
2023-05-10T01:45:18.082Z,3.55
2023-05-10T01:47:47.191Z,3.97
2023-05-10T01:50:20.202Z,4.00
2023-05-10T01:52:54.207Z,4.00
2023-05-10T01:55:22.241Z,4.32
2023-05-10T01:57:52.592Z,3.42
2023-05-10T02:00:21.716Z,3.97
2023-05-10T02:02:50.120Z,4.25
2023-05-10T02:05:18.744Z,3.83
2023-05-10T02:07:46.498Z,3.63
2023-05-10T02:10:14.535Z,3.72
2023-05-10T02:12:46.058Z,3.70
2023-05-10T02:15:14.228Z,3.80
2023-05-10T02:17:42.647Z,3.70
2023-05-10T02:20:09.639Z,3.75
2023-05-10T02:22:47.311Z,3.38
2023-05-10T02:25:14.647Z,3.47
2023-05-10T02:27:44.594Z,3.30
2023-05-10T02:30:11.694Z,3.58
2023-05-10T02:32:38.996Z,3.83
2023-05-10T02:35:10.216Z,3.42
2023-05-10T02:37:38.216Z,3.67
2023-05-10T02:40:06.659Z,3.10
2023-05-10T02:42:36.087Z,4.00
2023-05-10T02:45:08.082Z,3.17
2023-05-10T02:47:34.894Z,3.95
2023-05-10T02:50:01.774Z,3.88
2023-05-10T02:52:31.639Z,3.42
2023-05-10T02:55:01.701Z,3.63
2023-05-10T02:57:30.065Z,3.75
2023-05-10T02:59:58.784Z,3.78
2023-05-10T03:02:26.169Z,3.28
2023-05-10T03:04:55.002Z,4.05
2023-05-10T03:07:22.169Z,4.07
2023-05-10T03:09:51.652Z,3.67
2023-05-10T03:12:33.407Z,3.85
2023-05-10T03:15:20.914Z,3.72
2023-05-10T03:18:03.820Z,3.42
2023-05-10T03:20:46.494Z,3.58
2023-05-10T03:23:18.816Z,4.10
2023-05-10T03:25:45.313Z,3.50
2023-05-10T03:28:12.972Z,3.70
2023-05-10T03:30:39.340Z,3.55
2023-05-10T03:33:07.178Z,3.30
2023-05-10T03:35:37.658Z,3.58
2023-05-10T03:38:03.884Z,3.25
2023-05-10T03:40:33.280Z,3.17
2023-05-10T03:43:00.882Z,3.30
2023-05-10T03:45:29.935Z,3.35
2023-05-10T03:47:57.093Z,3.60
2023-05-10T03:50:30.256Z,3.30
2023-05-10T03:52:56.687Z,3.60
2023-05-10T03:55:23.233Z,3.58
2023-05-10T03:57:50.453Z,3.00
2023-05-10T04:00:18.261Z,3.33
2023-05-10T04:02:46.357Z,2.90
2023-05-10T04:05:13.730Z,3.25
2023-05-10T04:07:40.168Z,3.55
2023-05-10T04:10:08.800Z,3.17
2023-05-10T04:12:38.715Z,3.10
2023-05-10T04:15:05.709Z,3.00
2023-05-10T04:17:34.919Z,3.53
2023-05-10T04:20:04.182Z,3.25
2023-05-10T04:22:31.934Z,2.80
2023-05-10T04:24:58.201Z,3.38
2023-05-10T04:27:27.246Z,3.28
2023-05-10T04:29:54.847Z,3.20
2023-05-10T04:32:21.626Z,3.78
2023-05-10T04:34:49.824Z,3.15
2023-05-10T04:37:16.362Z,3.15
2023-05-10T04:39:43.450Z,4.07
2023-05-10T04:42:15.208Z,3.30
2023-05-10T04:44:41.933Z,2.95
2023-05-10T04:47:09.862Z,2.67
2023-05-10T04:49:38.746Z,3.15
2023-05-10T04:52:05.145Z,2.90
2023-05-10T04:54:31.664Z,3.05
2023-05-10T04:56:59.417Z,3.20
2023-05-10T04:59:25.789Z,3.15
2023-05-10T05:01:52.487Z,2.92
2023-05-10T05:04:24.229Z,2.88
2023-05-10T05:06:52.935Z,2.70
2023-05-10T05:09:29.145Z,2.80
2023-05-10T05:11:55.803Z,2.90
2023-05-10T05:14:33.012Z,2.78
2023-05-10T05:16:59.571Z,2.63
2023-05-10T05:19:26.384Z,2.88
2023-05-10T05:21:52.741Z,2.83
2023-05-10T05:24:19.747Z,2.88
2023-05-10T05:26:45.997Z,2.65
2023-05-10T05:29:12.249Z,3.17
2023-05-10T05:31:41.397Z,2.50
2023-05-10T05:34:10.330Z,2.90
2023-05-10T05:36:41.371Z,2.55
2023-05-10T05:39:08.287Z,2.55
2023-05-10T05:41:34.809Z,2.03
2023-05-10T05:44:04.378Z,2.50
2023-05-10T05:46:30.834Z,2.25
2023-05-10T05:48:57.414Z,2.58
2023-05-10T05:51:25.570Z,3.05
2023-05-10T05:53:52.126Z,2.53
2023-05-10T05:56:24.935Z,2.78
2023-05-10T05:58:51.819Z,2.40
2023-05-10T06:01:18.350Z,3.05
2023-05-10T06:03:47.739Z,2.47
2023-05-10T06:06:14.943Z,2.60
2023-05-10T06:08:41.270Z,2.88
2023-05-10T06:11:07.736Z,2.90
2023-05-10T06:13:36.694Z,2.58
2023-05-10T06:16:03.775Z,3.20
2023-05-10T06:18:30.163Z,2.55
2023-05-10T06:20:57.888Z,2.20
2023-05-10T06:23:24.212Z,2.17
2023-05-10T06:25:50.395Z,2.28
2023-05-10T06:28:19.723Z,2.30
2023-05-10T06:30:45.873Z,2.17
2023-05-10T06:33:12.247Z,2.42
2023-05-10T06:35:45.191Z,2.30
2023-05-10T06:38:11.455Z,1.98
2023-05-10T06:40:37.983Z,2.33
2023-05-10T06:43:04.553Z,1.95
2023-05-10T07:27:44.344Z,2.20
2023-05-10T07:30:11.585Z,2.22
2023-05-10T07:32:38.361Z,2.17
2023-05-10T07:35:08.019Z,2.10
2023-05-10T07:37:34.456Z,2.45
2023-05-10T07:40:00.700Z,2.10
2023-05-10T07:42:28.622Z,1.70
2023-05-10T07:44:55.035Z,2.30
2023-05-10T07:47:21.422Z,2.13
2023-05-10T07:49:48.748Z,2.10
2023-05-10T07:52:15.258Z,2.13
2023-05-10T07:54:41.865Z,1.90
2023-05-10T07:57:08.370Z,2.10
2023-05-10T07:59:34.646Z,1.85
2023-05-10T08:02:01.740Z,1.90
2023-05-10T08:04:31.744Z,1.98
2023-05-10T08:06:58.588Z,2.20
2023-05-10T08:09:25.928Z,2.17
2023-05-10T08:11:52.821Z,1.90
2023-05-10T08:14:19.196Z,1.88
2023-05-10T08:16:45.435Z,2.45
2023-05-10T08:19:13.302Z,2.22
2023-05-10T08:21:41.302Z,2.05
2023-05-10T08:24:07.774Z,1.73
2023-05-10T08:26:36.142Z,1.85
2023-05-10T08:29:03.270Z,2.30
2023-05-10T08:31:29.570Z,2.33
2023-05-10T08:33:58.687Z,2.15
2023-05-10T08:36:25.390Z,2.10
2023-05-10T08:38:55.278Z,2.10
2023-05-10T08:41:22.870Z,2.33
2023-05-10T08:43:50.186Z,1.77
2023-05-10T08:46:23.474Z,2.10
2023-05-10T08:48:52.719Z,2.10
2023-05-10T08:51:22.294Z,2.28
2023-05-10T08:53:49.024Z,2.00
2023-05-10T08:56:18.686Z,1.80
2023-05-10T08:58:45.288Z,1.80
2023-05-10T09:01:12.182Z,1.98
2023-05-10T09:03:42.989Z,2.03
2023-05-10T09:06:09.330Z,2.15
2023-05-10T09:08:37.380Z,1.67
2023-05-10T09:11:08.806Z,1.83
2023-05-10T09:13:36.448Z,1.90
2023-05-10T09:16:17.458Z,2.30
2023-05-10T09:18:48.380Z,1.95
2023-05-10T09:21:14.931Z,2.17
2023-05-10T09:23:46.726Z,2.10
2023-05-10T09:26:16.655Z,1.85
2023-05-10T09:28:56.190Z,2.28
2023-05-10T09:31:25.042Z,1.85
2023-05-10T09:33:52.744Z,2.03
2023-05-10T09:36:22.946Z,1.92
2023-05-10T09:39:12.836Z,1.40
2023-05-10T09:41:39.964Z,2.38
2023-05-10T09:44:12.456Z,1.75
2023-05-10T09:46:39.139Z,1.67
2023-05-10T09:49:06.947Z,1.90
2023-05-10T09:51:36.159Z,2.28
2023-05-10T09:54:14.356Z,1.80
2023-05-10T09:56:43.968Z,1.98
2023-05-10T09:59:12.211Z,1.70
2023-05-10T10:01:39.864Z,1.80
2023-05-10T10:04:12.686Z,1.83
2023-05-10T10:06:41.437Z,1.90
2023-05-10T10:09:10.980Z,1.52
2023-05-10T10:11:38.516Z,2.13
2023-05-10T10:14:06.122Z,2.40
2023-05-10T10:16:34.280Z,2.08
2023-05-10T10:19:01.456Z,2.22
2023-05-10T10:21:30.298Z,2.10
2023-05-10T10:23:56.823Z,2.03
2023-05-10T10:26:23.734Z,2.20
2023-05-10T10:29:13.763Z,1.95
2023-05-10T10:31:45.182Z,1.88
2023-05-10T10:34:29.801Z,1.70
2023-05-10T10:37:01.673Z,1.98
2023-05-10T10:39:28.689Z,2.15
2023-05-10T10:41:56.809Z,2.42
2023-05-10T10:44:25.262Z,2.40
2023-05-10T10:47:07.131Z,1.90
2023-05-10T10:49:34.398Z,2.40
2023-05-10T10:52:33.785Z,2.13
2023-05-10T10:55:00.868Z,1.90
2023-05-10T10:57:27.800Z,1.88
2023-05-10T11:00:25.258Z,1.80
2023-05-10T11:03:19.716Z,2.10
2023-05-10T11:05:50.297Z,2.00
2023-05-10T11:08:20.816Z,1.80
2023-05-10T11:11:12.873Z,1.65
2023-05-10T11:13:44.295Z,1.63
2023-05-10T11:16:18.791Z,1.52
2023-05-10T11:18:54.386Z,1.85
2023-05-10T11:21:21.329Z,1.98
2023-05-10T11:23:47.413Z,2.30
2023-05-10T11:26:13.985Z,2.38
2023-05-10T11:28:50.760Z,1.90
2023-05-10T11:31:19.073Z,1.95
2023-05-10T11:33:52.162Z,1.92
2023-05-10T11:36:20.735Z,1.88
2023-05-10T11:38:47.792Z,1.70
2023-05-10T11:41:14.547Z,1.63
2023-05-10T11:43:41.490Z,2.40
2023-05-10T11:46:12.480Z,2.00
2023-05-10T11:48:42.792Z,2.55
2023-05-10T11:51:13.767Z,1.90
2023-05-10T11:53:40.670Z,1.85
2023-05-10T11:56:09.037Z,1.60
2023-05-10T11:58:36.355Z,1.40
2023-05-10T12:01:03.873Z,1.60
2023-05-10T12:03:33.871Z,1.80
2023-05-10T12:06:02.053Z,2.05
2023-05-10T12:08:30.921Z,1.60
2023-05-10T12:11:08.978Z,1.65
2023-05-10T12:13:41.038Z,1.90
2023-05-10T12:16:19.855Z,1.80
2023-05-10T12:18:49.832Z,1.80
2023-05-10T12:21:16.696Z,2.13
2023-05-10T12:23:43.322Z,1.73
2023-05-10T12:26:10.749Z,1.80
2023-05-10T12:28:38.184Z,1.67
2023-05-10T12:31:05.872Z,1.67
2023-05-10T12:33:45.959Z,1.80
2023-05-10T12:36:17.931Z,1.80
2023-05-10T12:38:48.905Z,2.08
2023-05-10T12:41:19.062Z,2.05
2023-05-10T12:43:48.884Z,1.77
2023-05-10T12:46:18.176Z,2.13
2023-05-10T12:48:47.203Z,1.85
2023-05-10T12:51:16.431Z,1.63
2023-05-10T12:53:49.729Z,1.85
2023-05-10T12:56:16.486Z,1.65
2023-05-10T12:58:42.835Z,1.50
2023-05-10T13:01:09.105Z,1.75
2023-05-10T13:03:35.449Z,1.88
2023-05-10T13:06:02.585Z,1.52
2023-05-10T13:08:34.102Z,2.05
2023-05-10T13:11:01.850Z,1.80
2023-05-10T13:13:28.510Z,2.05
2023-05-10T13:15:55.594Z,1.92
2023-05-10T13:18:23.076Z,2.65
2023-05-10T13:20:50.623Z,1.75
2023-05-10T13:23:17.368Z,1.77
2023-05-10T13:25:43.951Z,2.10
2023-05-10T13:28:10.440Z,1.90
2023-05-10T13:30:46.107Z,2.30
2023-05-10T13:33:13.545Z,1.90
2023-05-10T13:35:40.379Z,1.80
2023-05-10T13:38:19.891Z,1.83
2023-05-10T13:40:47.958Z,2.20
2023-05-10T13:43:15.490Z,1.45
2023-05-10T13:45:49.143Z,4.40
2023-05-10T13:48:16.691Z,1.92
2023-05-10T13:50:44.524Z,1.98
2023-05-10T13:53:11.158Z,2.08
2023-05-10T13:55:40.861Z,1.90
2023-05-10T13:58:07.497Z,2.00
2023-05-10T14:00:33.939Z,2.42
2023-05-10T14:03:00.882Z,1.90
2023-05-10T14:05:29.655Z,1.90
2023-05-10T14:07:56.357Z,1.70
2023-05-10T14:10:22.685Z,1.70
2023-05-10T14:12:49.187Z,2.00
2023-05-10T14:15:15.590Z,2.00
2023-05-10T14:17:42.614Z,2.15
2023-05-10T14:20:11.251Z,1.77
2023-05-10T14:22:41.107Z,1.73
2023-05-10T14:25:07.833Z,1.90
2023-05-10T14:27:34.382Z,2.08
2023-05-10T14:30:00.866Z,1.90
2023-05-10T14:32:28.529Z,2.47
2023-05-10T14:34:54.915Z,1.50
2023-05-10T14:37:21.592Z,1.90
2023-05-10T14:39:50.407Z,1.85
2023-05-10T14:42:17.633Z,2.25
2023-05-10T14:44:44.009Z,2.00
2023-05-10T14:47:12.079Z,1.80
2023-05-10T14:49:38.864Z,2.13
2023-05-10T14:52:05.121Z,1.90
2023-05-10T14:54:31.476Z,2.03
2023-05-10T14:57:00.013Z,1.88
2023-05-10T14:59:26.396Z,1.50
2023-05-10T15:01:53.386Z,2.22
2023-05-10T15:04:20.208Z,2.22
2023-05-10T15:06:46.937Z,2.25
2023-05-10T15:09:13.397Z,1.58
2023-05-10T15:11:39.989Z,1.80
2023-05-10T15:14:06.812Z,1.80
2023-05-10T15:16:35.843Z,1.85
2023-05-10T15:19:02.719Z,1.50
2023-05-10T15:21:29.284Z,1.92
2023-05-10T15:23:55.796Z,1.70
2023-05-10T15:26:24.444Z,2.10
2023-05-10T15:28:51.059Z,2.05
2023-05-10T15:31:17.502Z,3.22
2023-05-10T15:33:45.447Z,2.70
2023-05-10T15:36:12.170Z,2.10
2023-05-10T15:38:38.518Z,2.00
2023-05-10T15:41:07.554Z,1.98
2023-05-10T15:43:33.840Z,1.95
2023-05-10T15:46:02.607Z,1.60
2023-05-10T15:48:32.025Z,1.90
2023-05-10T15:50:58.299Z,2.10
2023-05-10T15:53:26.656Z,1.88
2023-05-10T15:55:53.396Z,1.80
2023-05-10T15:58:19.701Z,1.95
2023-05-10T16:00:46.496Z,1.92
2023-05-10T16:03:15.096Z,1.83
2023-05-10T16:05:41.504Z,2.03
2023-05-10T16:08:07.729Z,1.80
2023-05-10T16:10:34.415Z,2.53
2023-05-10T16:13:02.202Z,2.03
2023-05-10T16:15:34.482Z,2.40
2023-05-10T16:18:01.084Z,2.53
2023-05-10T16:20:27.455Z,2.58
2023-05-10T16:22:55.455Z,2.75
2023-05-10T16:25:21.773Z,3.70
2023-05-10T16:27:51.428Z,3.63
2023-05-10T16:30:18.053Z,4.03
2023-05-10T16:32:44.518Z,3.70
2023-05-10T16:35:10.999Z,3.10
2023-05-10T16:37:37.832Z,3.40
2023-05-10T16:40:05.017Z,3.38
2023-05-10T16:42:34.422Z,4.10
2023-05-10T16:45:08.422Z,3.30
2023-05-10T16:47:35.490Z,3.55
2023-05-10T16:50:02.645Z,4.05
2023-05-10T16:52:29.167Z,4.10
2023-05-10T16:54:56.008Z,3.67
2023-05-10T16:57:25.529Z,3.83
2023-05-10T16:59:55.969Z,3.55
2023-05-10T17:02:23.035Z,4.00
2023-05-10T17:04:49.910Z,3.33
2023-05-10T17:07:19.550Z,3.63
2023-05-10T17:09:50.887Z,3.35
2023-05-10T17:12:17.355Z,4.00
2023-05-10T17:14:43.722Z,4.10
2023-05-10T17:17:10.510Z,3.42
2023-05-10T17:19:46.486Z,3.80
2023-05-10T17:22:13.101Z,3.38
2023-05-10T17:24:42.241Z,3.40
2023-05-10T17:27:09.365Z,3.38
2023-05-10T17:29:35.685Z,3.25
2023-05-10T17:32:02.205Z,3.80
2023-05-10T17:34:32.618Z,4.30
2023-05-10T17:36:59.018Z,3.90
2023-05-10T17:39:25.525Z,3.67
2023-05-10T17:41:57.048Z,3.60
2023-05-10T17:44:25.447Z,3.45
2023-05-10T17:46:52.209Z,3.25
2023-05-10T17:49:19.700Z,3.22
2023-05-10T17:51:48.035Z,3.70
2023-05-10T17:54:15.160Z,3.55
2023-05-10T17:56:46.982Z,3.25
2023-05-10T17:59:13.387Z,3.60
2023-05-10T18:01:42.260Z,3.55
2023-05-10T18:04:08.714Z,3.78
2023-05-10T18:06:38.941Z,4.75
2023-05-10T18:09:07.079Z,4.30
2023-05-10T18:11:37.859Z,4.40
2023-05-10T18:14:04.413Z,3.75
2023-05-10T18:16:34.004Z,3.50
2023-05-10T18:19:02.075Z,4.43
2023-05-10T18:21:28.738Z,3.65
2023-05-10T18:23:55.145Z,3.92
2023-05-10T18:26:25.137Z,3.42
2023-05-10T18:28:51.625Z,3.70
2023-05-10T18:31:18.308Z,3.15
2023-05-10T18:33:44.982Z,3.65
2023-05-10T18:36:17.072Z,3.88
2023-05-10T18:38:44.124Z,3.97
2023-05-10T18:41:13.278Z,3.55
2023-05-10T18:43:39.798Z,3.40
2023-05-10T18:46:06.595Z,3.83
2023-05-10T18:48:33.152Z,3.85
2023-05-10T18:50:59.578Z,3.47
2023-05-10T18:53:26.196Z,3.78
2023-05-10T18:56:03.681Z,3.83
2023-05-10T18:58:30.426Z,3.95
2023-05-10T19:01:00.830Z,4.22
2023-05-10T19:03:29.067Z,3.72
2023-05-10T19:05:56.246Z,3.63
2023-05-10T19:08:23.428Z,3.80
2023-05-10T19:10:49.994Z,4.10
2023-05-10T19:13:16.274Z,3.90
2023-05-10T19:15:42.735Z,3.90
2023-05-10T19:18:11.938Z,3.83
2023-05-10T19:20:40.229Z,4.18
2023-05-10T19:23:10.037Z,4.05
2023-05-10T19:25:36.635Z,3.80
2023-05-10T19:28:03.029Z,3.53
2023-05-10T19:30:34.054Z,3.92
2023-05-10T19:33:05.416Z,4.07
2023-05-10T19:35:32.044Z,4.03
2023-05-10T19:38:03.344Z,3.88
2023-05-10T19:40:31.456Z,4.32
2023-05-10T19:42:57.966Z,4.40
2023-05-10T19:45:25.226Z,4.57
2023-05-10T19:47:51.839Z,4.95
2023-05-10T19:50:19.565Z,4.90
2023-05-10T19:52:46.266Z,4.50
2023-05-10T19:55:15.738Z,4.55
2023-05-10T19:57:42.457Z,4.70
2023-05-10T20:00:09.417Z,4.43
2023-05-10T20:02:38.702Z,4.10
2023-05-10T20:05:08.659Z,4.25
2023-05-10T20:07:36.080Z,4.45
2023-05-10T20:10:03.078Z,5.25
2023-05-10T20:12:32.121Z,4.88
2023-05-10T20:14:58.588Z,4.80
2023-05-10T20:17:25.152Z,4.50
2023-05-10T20:19:51.818Z,4.50
2023-05-10T20:22:20.596Z,5.47
2023-05-10T20:24:47.743Z,5.05
2023-05-10T20:27:14.131Z,4.78
2023-05-10T20:29:40.587Z,4.82
2023-05-10T20:32:09.584Z,4.72
2023-05-10T20:34:36.115Z,4.57
2023-05-10T20:37:02.597Z,4.85
2023-05-10T20:39:29.892Z,4.32
2023-05-10T20:41:57.846Z,5.32
2023-05-10T20:44:27.142Z,5.40
2023-05-10T20:46:53.485Z,4.75
2023-05-10T20:49:22.642Z,4.72
2023-05-10T20:51:49.151Z,4.93
2023-05-10T20:54:15.715Z,4.68
2023-05-10T20:56:42.279Z,4.65
2023-05-10T20:59:08.706Z,4.82
2023-05-10T21:01:35.170Z,4.45
2023-05-10T21:04:04.350Z,4.22
2023-05-10T21:06:32.867Z,4.32
2023-05-10T21:08:59.281Z,4.25
2023-05-10T21:11:26.191Z,4.45
2023-05-10T21:13:53.415Z,4.22
2023-05-10T21:16:19.980Z,3.92
2023-05-10T21:18:57.038Z,3.88
2023-05-10T21:21:23.683Z,4.22
2023-05-10T21:23:50.141Z,3.90
2023-05-10T21:26:19.290Z,4.30
2023-05-10T21:28:45.669Z,3.95
2023-05-10T21:31:12.234Z,4.05
2023-05-10T21:33:39.206Z,4.40
2023-05-10T21:36:05.769Z,4.03
2023-05-10T21:38:32.809Z,4.47
2023-05-10T21:40:59.971Z,3.22
2023-05-10T21:43:26.246Z,4.10
2023-05-10T21:45:52.901Z,4.32
2023-05-10T21:48:20.782Z,4.18
2023-05-10T21:50:47.899Z,3.78
2023-05-10T21:53:14.309Z,4.97
2023-05-10T21:55:41.801Z,4.57
2023-05-10T21:58:08.074Z,3.78
2023-05-10T22:00:38.041Z,4.10
2023-05-10T22:03:05.478Z,4.07
2023-05-10T22:05:31.957Z,4.50
2023-05-10T22:07:58.432Z,4.15
2023-05-10T22:10:28.169Z,3.58
2023-05-10T22:12:56.009Z,3.80
2023-05-10T22:15:22.412Z,4.05
2023-05-10T22:17:48.692Z,3.53
2023-05-10T22:20:15.332Z,3.53
2023-05-10T22:22:41.695Z,3.60
2023-05-10T22:25:11.142Z,3.55
2023-05-10T22:27:37.628Z,3.70
2023-05-10T22:30:04.530Z,3.28
2023-05-10T22:32:33.804Z,3.65
2023-05-10T22:35:00.157Z,3.60
2023-05-10T22:37:32.635Z,3.67
2023-05-10T22:39:59.704Z,3.35
2023-05-10T22:42:26.386Z,3.83
2023-05-10T22:44:52.921Z,3.20
2023-05-10T22:47:19.219Z,3.25
2023-05-10T22:49:45.560Z,3.58
2023-05-10T22:52:15.386Z,4.03
2023-05-10T22:54:41.752Z,3.78
2023-05-10T22:57:08.016Z,3.70
2023-05-10T22:59:34.466Z,3.88
2023-05-10T23:02:01.407Z,4.20
2023-05-10T23:04:27.726Z,3.60
2023-05-10T23:06:53.949Z,4.00
2023-05-10T23:09:20.143Z,3.92
2023-05-10T23:11:46.751Z,4.10
2023-05-10T23:14:15.460Z,3.85
2023-05-10T23:16:50.002Z,3.70
2023-05-10T23:19:16.524Z,4.40
2023-05-10T23:21:42.682Z,3.97
2023-05-10T23:24:09.421Z,4.00
2023-05-10T23:26:37.778Z,4.43
2023-05-10T23:29:04.301Z,4.55
2023-05-10T23:31:32.358Z,4.05
2023-05-10T23:33:58.636Z,4.20
2023-05-10T23:36:25.129Z,4.50
2023-05-10T23:38:51.344Z,4.05
2023-05-10T23:41:17.679Z,3.85
2023-05-10T23:43:43.936Z,4.85
2023-05-10T23:46:10.514Z,4.32
2023-05-10T23:48:36.743Z,4.97
2023-05-10T23:51:03.746Z,4.18
2023-05-10T23:53:33.505Z,4.47
2023-05-10T23:55:59.907Z,4.63
2023-05-10T23:58:26.141Z,4.32
